sensor_id;sensor_type;location;lat;lon;timestamp;pressure;altitude;pressure_sealevel;temperature;humidity
45071;BME280;30836;48.906;9.140;2023-07-02T00:00:13;980.47;;;24.24;51.19
45071;BME280;30836;48.906;9.140;2023-07-02T00:01:14;980.49;;;24.24;51.18
45071;BME280;30836;48.906;9.140;2023-07-02T00:02:15;980.49;;;24.22;51.29
45071;BME280;30836;48.906;9.140;2023-07-02T00:03:16;980.49;;;24.19;51.27
45071;BME280;30836;48.906;9.140;2023-07-02T00:04:16;980.47;;;24.18;51.19
45071;BME280;30836;48.906;9.140;2023-07-02T00:05:17;980.45;;;24.11;51.76
45071;BME280;30836;48.906;9.140;2023-07-02T00:06:18;980.43;;;23.97;52.19
45071;BME280;30836;48.906;9.140;2023-07-02T00:07:18;980.43;;;23.86;52.35
45071;BME280;30836;48.906;9.140;2023-07-02T00:08:18;980.39;;;23.78;52.42
45071;BME280;30836;48.906;9.140;2023-07-02T00:09:19;980.41;;;23.73;52.47
45071;BME280;30836;48.906;9.140;2023-07-02T00:10:19;980.41;;;23.70;52.66
45071;BME280;30836;48.906;9.140;2023-07-02T00:11:20;980.41;;;23.64;52.81
45071;BME280;30836;48.906;9.140;2023-07-02T00:12:20;980.47;;;23.57;53.00
45071;BME280;30836;48.906;9.140;2023-07-02T00:13:21;980.47;;;23.54;53.02
45071;BME280;30836;48.906;9.140;2023-07-02T00:14:21;980.47;;;23.53;53.16
45071;BME280;30836;48.906;9.140;2023-07-02T00:15:22;980.47;;;23.53;53.06
45071;BME280;30836;48.906;9.140;2023-07-02T00:16:22;980.47;;;23.52;53.10
45071;BME280;30836;48.906;9.140;2023-07-02T00:17:23;980.51;;;23.51;53.08
45071;BME280;30836;48.906;9.140;2023-07-02T00:18:23;980.49;;;23.50;53.30
45071;BME280;30836;48.906;9.140;2023-07-02T00:19:24;980.49;;;23.48;53.38
45071;BME280;30836;48.906;9.140;2023-07-02T00:20:24;980.49;;;23.46;53.34
45071;BME280;30836;48.906;9.140;2023-07-02T00:21:26;980.51;;;23.43;53.44
45071;BME280;30836;48.906;9.140;2023-07-02T00:22:27;980.53;;;23.39;53.43
45071;BME280;30836;48.906;9.140;2023-07-02T00:23:27;980.53;;;23.39;53.37
45071;BME280;30836;48.906;9.140;2023-07-02T00:24:27;980.53;;;23.37;53.52
45071;BME280;30836;48.906;9.140;2023-07-02T00:25:28;980.53;;;23.35;53.44
45071;BME280;30836;48.906;9.140;2023-07-02T00:26:28;980.51;;;23.36;53.34
45071;BME280;30836;48.906;9.140;2023-07-02T00:27:29;980.49;;;23.38;53.16
45071;BME280;30836;48.906;9.140;2023-07-02T00:28:29;980.49;;;23.40;53.12
45071;BME280;30836;48.906;9.140;2023-07-02T00:29:29;980.49;;;23.41;53.15
45071;BME280;30836;48.906;9.140;2023-07-02T00:30:30;980.49;;;23.40;53.27
45071;BME280;30836;48.906;9.140;2023-07-02T00:31:30;980.45;;;23.41;53.20
45071;BME280;30836;48.906;9.140;2023-07-02T00:32:31;980.41;;;23.44;53.03
45071;BME280;30836;48.906;9.140;2023-07-02T00:33:31;980.43;;;23.51;52.76
45071;BME280;30836;48.906;9.140;2023-07-02T00:34:32;980.45;;;23.58;52.58
45071;BME280;30836;48.906;9.140;2023-07-02T00:35:32;980.43;;;23.63;52.44
45071;BME280;30836;48.906;9.140;2023-07-02T00:36:33;980.47;;;23.67;52.46
45071;BME280;30836;48.906;9.140;2023-07-02T00:37:33;980.45;;;23.71;52.18
45071;BME280;30836;48.906;9.140;2023-07-02T00:38:34;980.45;;;23.72;52.27
45071;BME280;30836;48.906;9.140;2023-07-02T00:39:34;980.47;;;23.73;52.07
45071;BME280;30836;48.906;9.140;2023-07-02T00:40:35;980.45;;;23.72;52.29
45071;BME280;30836;48.906;9.140;2023-07-02T00:41:35;980.45;;;23.70;52.21
45071;BME280;30836;48.906;9.140;2023-07-02T00:42:35;980.47;;;23.68;52.17
45071;BME280;30836;48.906;9.140;2023-07-02T00:43:36;980.47;;;23.66;52.18
45071;BME280;30836;48.906;9.140;2023-07-02T00:44:37;980.51;;;23.64;52.26
45071;BME280;30836;48.906;9.140;2023-07-02T00:45:37;980.49;;;23.62;52.27
45071;BME280;30836;48.906;9.140;2023-07-02T00:46:38;980.51;;;23.58;52.21
45071;BME280;30836;48.906;9.140;2023-07-02T00:47:39;980.51;;;23.53;52.49
45071;BME280;30836;48.906;9.140;2023-07-02T00:48:40;980.53;;;23.45;52.73
45071;BME280;30836;48.906;9.140;2023-07-02T00:49:41;980.53;;;23.36;52.83
45071;BME280;30836;48.906;9.140;2023-07-02T00:50:41;980.53;;;23.29;52.90
45071;BME280;30836;48.906;9.140;2023-07-02T00:51:41;980.53;;;23.22;53.02
45071;BME280;30836;48.906;9.140;2023-07-02T00:52:42;980.57;;;23.14;53.31
45071;BME280;30836;48.906;9.140;2023-07-02T00:53:46;980.59;;;23.02;53.75
45071;BME280;30836;48.906;9.140;2023-07-02T00:54:48;980.61;;;22.92;53.55
45071;BME280;30836;48.906;9.140;2023-07-02T00:55:48;980.63;;;22.98;53.09
45071;BME280;30836;48.906;9.140;2023-07-02T00:56:49;980.63;;;23.14;52.68
45071;BME280;30836;48.906;9.140;2023-07-02T00:57:49;980.59;;;23.30;52.30
45071;BME280;30836;48.906;9.140;2023-07-02T00:58:51;980.57;;;23.44;52.02
45071;BME280;30836;48.906;9.140;2023-07-02T00:59:53;980.57;;;23.54;51.72
45071;BME280;30836;48.906;9.140;2023-07-02T01:00:53;980.59;;;23.56;51.94
45071;BME280;30836;48.906;9.140;2023-07-02T01:01:54;980.57;;;23.51;52.22
45071;BME280;30836;48.906;9.140;2023-07-02T01:02:55;980.61;;;23.44;52.46
45071;BME280;30836;48.906;9.140;2023-07-02T01:04:56;980.59;;;23.33;52.66
45071;BME280;30836;48.906;9.140;2023-07-02T01:05:57;980.63;;;23.30;52.76
45071;BME280;30836;48.906;9.140;2023-07-02T01:06:57;980.59;;;23.26;52.78
45071;BME280;30836;48.906;9.140;2023-07-02T01:07:58;980.61;;;23.22;52.92
45071;BME280;30836;48.906;9.140;2023-07-02T01:08:59;980.59;;;23.21;52.94
45071;BME280;30836;48.906;9.140;2023-07-02T01:10:00;980.59;;;23.22;52.78
45071;BME280;30836;48.906;9.140;2023-07-02T01:11:01;980.59;;;23.25;52.65
45071;BME280;30836;48.906;9.140;2023-07-02T01:12:02;980.57;;;23.24;52.87
45071;BME280;30836;48.906;9.140;2023-07-02T01:13:14;980.61;;;23.23;52.83
45071;BME280;30836;48.906;9.140;2023-07-02T01:14:20;980.63;;;23.25;52.72
45071;BME280;30836;48.906;9.140;2023-07-02T01:15:26;980.59;;;23.27;52.52
45071;BME280;30836;48.906;9.140;2023-07-02T01:16:27;980.59;;;23.30;52.53
45071;BME280;30836;48.906;9.140;2023-07-02T01:17:30;980.53;;;23.32;52.50
45071;BME280;30836;48.906;9.140;2023-07-02T01:18:33;980.53;;;23.35;52.42
45071;BME280;30836;48.906;9.140;2023-07-02T01:20:43;980.55;;;23.42;52.23
45071;BME280;30836;48.906;9.140;2023-07-02T01:21:45;980.55;;;23.45;52.14
45071;BME280;30836;48.906;9.140;2023-07-02T01:22:48;980.55;;;23.47;52.22
45071;BME280;30836;48.906;9.140;2023-07-02T01:23:49;980.57;;;23.47;52.21
45071;BME280;30836;48.906;9.140;2023-07-02T01:24:50;980.57;;;23.45;52.29
45071;BME280;30836;48.906;9.140;2023-07-02T01:25:51;980.59;;;23.44;52.36
45071;BME280;30836;48.906;9.140;2023-07-02T01:26:52;980.59;;;23.42;52.48
45071;BME280;30836;48.906;9.140;2023-07-02T01:27:53;980.63;;;23.40;52.41
45071;BME280;30836;48.906;9.140;2023-07-02T01:28:54;980.67;;;23.39;52.57
45071;BME280;30836;48.906;9.140;2023-07-02T01:29:54;980.69;;;23.36;52.51
45071;BME280;30836;48.906;9.140;2023-07-02T01:30:55;980.71;;;23.35;52.51
45071;BME280;30836;48.906;9.140;2023-07-02T01:31:55;980.73;;;23.32;52.62
45071;BME280;30836;48.906;9.140;2023-07-02T01:32:56;980.71;;;23.26;52.96
45071;BME280;30836;48.906;9.140;2023-07-02T01:33:57;980.71;;;23.18;53.06
45071;BME280;30836;48.906;9.140;2023-07-02T01:34:57;980.71;;;23.11;53.33
45071;BME280;30836;48.906;9.140;2023-07-02T01:35:58;980.71;;;23.02;53.52
45071;BME280;30836;48.906;9.140;2023-07-02T01:36:58;980.67;;;22.94;53.69
45071;BME280;30836;48.906;9.140;2023-07-02T01:37:58;980.65;;;22.90;53.73
45071;BME280;30836;48.906;9.140;2023-07-02T01:38:59;980.63;;;22.89;53.60
45071;BME280;30836;48.906;9.140;2023-07-02T01:39:59;980.65;;;22.89;53.65
45071;BME280;30836;48.906;9.140;2023-07-02T01:41:00;980.67;;;22.89;53.73
45071;BME280;30836;48.906;9.140;2023-07-02T01:43:14;980.65;;;22.88;53.81
45071;BME280;30836;48.906;9.140;2023-07-02T01:44:14;980.63;;;22.89;53.75
45071;BME280;30836;48.906;9.140;2023-07-02T01:45:15;980.65;;;22.90;53.79
45071;BME280;30836;48.906;9.140;2023-07-02T01:46:15;980.63;;;22.90;53.56
45071;BME280;30836;48.906;9.140;2023-07-02T01:47:16;980.65;;;22.91;53.71
45071;BME280;30836;48.906;9.140;2023-07-02T01:48:16;980.65;;;22.90;53.77
45071;BME280;30836;48.906;9.140;2023-07-02T01:49:20;980.65;;;22.89;53.92
45071;BME280;30836;48.906;9.140;2023-07-02T01:50:20;980.67;;;22.86;53.78
45071;BME280;30836;48.906;9.140;2023-07-02T01:51:21;980.69;;;22.85;53.78
45071;BME280;30836;48.906;9.140;2023-07-02T01:52:21;980.67;;;22.86;53.67
45071;BME280;30836;48.906;9.140;2023-07-02T01:53:21;980.69;;;22.87;53.63
45071;BME280;30836;48.906;9.140;2023-07-02T01:54:23;980.65;;;22.88;53.70
45071;BME280;30836;48.906;9.140;2023-07-02T01:55:25;980.69;;;22.91;53.49
45071;BME280;30836;48.906;9.140;2023-07-02T01:56:26;980.67;;;23.01;53.04
45071;BME280;30836;48.906;9.140;2023-07-02T01:57:26;980.67;;;23.17;52.57
45071;BME280;30836;48.906;9.140;2023-07-02T01:58:27;980.65;;;23.34;52.10
45071;BME280;30836;48.906;9.140;2023-07-02T01:59:27;980.63;;;23.48;51.79
45071;BME280;30836;48.906;9.140;2023-07-02T02:00:28;980.63;;;23.59;51.58
45071;BME280;30836;48.906;9.140;2023-07-02T02:01:28;980.55;;;23.70;51.28
45071;BME280;30836;48.906;9.140;2023-07-02T02:02:28;980.55;;;23.80;51.09
45071;BME280;30836;48.906;9.140;2023-07-02T02:03:29;980.57;;;23.90;50.88
45071;BME280;30836;48.906;9.140;2023-07-02T02:04:29;980.53;;;23.98;50.72
45071;BME280;30836;48.906;9.140;2023-07-02T02:05:30;980.57;;;24.05;50.59
45071;BME280;30836;48.906;9.140;2023-07-02T02:06:31;980.59;;;24.10;50.40
45071;BME280;30836;48.906;9.140;2023-07-02T02:07:31;980.59;;;24.13;50.20
45071;BME280;30836;48.906;9.140;2023-07-02T02:08:32;980.61;;;24.12;50.41
45071;BME280;30836;48.906;9.140;2023-07-02T02:09:32;980.61;;;24.02;50.71
45071;BME280;30836;48.906;9.140;2023-07-02T02:10:32;980.59;;;23.90;50.99
45071;BME280;30836;48.906;9.140;2023-07-02T02:11:33;980.59;;;23.79;51.11
45071;BME280;30836;48.906;9.140;2023-07-02T02:12:34;980.63;;;23.71;51.39
45071;BME280;30836;48.906;9.140;2023-07-02T02:13:35;980.65;;;23.62;51.65
45071;BME280;30836;48.906;9.140;2023-07-02T02:14:35;980.69;;;23.52;51.83
45071;BME280;30836;48.906;9.140;2023-07-02T02:15:36;980.69;;;23.42;51.99
45071;BME280;30836;48.906;9.140;2023-07-02T02:16:36;980.73;;;23.34;52.21
45071;BME280;30836;48.906;9.140;2023-07-02T02:17:37;980.73;;;23.24;52.51
45071;BME280;30836;48.906;9.140;2023-07-02T02:18:38;980.73;;;23.14;52.55
45071;BME280;30836;48.906;9.140;2023-07-02T02:19:38;980.69;;;23.08;52.77
45071;BME280;30836;48.906;9.140;2023-07-02T02:20:39;980.71;;;23.02;52.91
45071;BME280;30836;48.906;9.140;2023-07-02T02:21:40;980.73;;;22.97;53.04
45071;BME280;30836;48.906;9.140;2023-07-02T02:22:41;980.69;;;22.93;53.06
45071;BME280;30836;48.906;9.140;2023-07-02T02:23:42;980.75;;;22.91;53.07
45071;BME280;30836;48.906;9.140;2023-07-02T02:24:42;980.79;;;22.87;53.19
45071;BME280;30836;48.906;9.140;2023-07-02T02:25:43;980.79;;;22.84;53.19
45071;BME280;30836;48.906;9.140;2023-07-02T02:26:43;980.79;;;22.82;53.35
45071;BME280;30836;48.906;9.140;2023-07-02T02:27:43;980.77;;;22.78;53.40
45071;BME280;30836;48.906;9.140;2023-07-02T02:28:44;980.79;;;22.73;53.76
45071;BME280;30836;48.906;9.140;2023-07-02T02:29:44;980.77;;;22.70;53.63
45071;BME280;30836;48.906;9.140;2023-07-02T02:30:45;980.77;;;22.71;53.52
45071;BME280;30836;48.906;9.140;2023-07-02T02:31:45;980.75;;;22.72;53.61
45071;BME280;30836;48.906;9.140;2023-07-02T02:32:45;980.77;;;22.74;53.57
45071;BME280;30836;48.906;9.140;2023-07-02T02:33:46;980.73;;;22.75;53.53
45071;BME280;30836;48.906;9.140;2023-07-02T02:34:46;980.75;;;22.77;53.54
45071;BME280;30836;48.906;9.140;2023-07-02T02:35:47;980.73;;;22.77;53.67
45071;BME280;30836;48.906;9.140;2023-07-02T02:36:47;980.73;;;22.77;53.55
45071;BME280;30836;48.906;9.140;2023-07-02T02:37:48;980.73;;;22.80;53.51
45071;BME280;30836;48.906;9.140;2023-07-02T02:38:48;980.69;;;22.83;53.42
45071;BME280;30836;48.906;9.140;2023-07-02T02:39:49;980.69;;;22.85;53.40
45071;BME280;30836;48.906;9.140;2023-07-02T02:40:49;980.69;;;22.86;53.42
45071;BME280;30836;48.906;9.140;2023-07-02T02:41:50;980.71;;;22.85;53.47
45071;BME280;30836;48.906;9.140;2023-07-02T02:42:50;980.69;;;22.83;53.44
45071;BME280;30836;48.906;9.140;2023-07-02T02:43:50;980.69;;;22.84;53.42
45071;BME280;30836;48.906;9.140;2023-07-02T02:44:51;980.67;;;22.85;53.50
45071;BME280;30836;48.906;9.140;2023-07-02T02:45:51;980.73;;;22.84;53.48
45071;BME280;30836;48.906;9.140;2023-07-02T02:46:52;980.75;;;22.82;53.55
45071;BME280;30836;48.906;9.140;2023-07-02T02:47:52;980.73;;;22.79;53.80
45071;BME280;30836;48.906;9.140;2023-07-02T02:48:53;980.73;;;22.76;53.72
45071;BME280;30836;48.906;9.140;2023-07-02T02:49:53;980.75;;;22.76;53.70
45071;BME280;30836;48.906;9.140;2023-07-02T02:50:53;980.73;;;22.76;53.75
45071;BME280;30836;48.906;9.140;2023-07-02T02:51:54;980.75;;;22.76;53.92
45071;BME280;30836;48.906;9.140;2023-07-02T02:52:54;980.75;;;22.77;53.80
45071;BME280;30836;48.906;9.140;2023-07-02T02:53:55;980.77;;;22.80;53.73
45071;BME280;30836;48.906;9.140;2023-07-02T02:54:55;980.79;;;22.82;53.71
45071;BME280;30836;48.906;9.140;2023-07-02T02:55:55;980.79;;;22.83;53.74
45071;BME280;30836;48.906;9.140;2023-07-02T02:56:56;980.79;;;22.84;53.77
45071;BME280;30836;48.906;9.140;2023-07-02T02:57:56;980.80;;;22.86;53.70
45071;BME280;30836;48.906;9.140;2023-07-02T02:58:57;980.82;;;22.89;53.67
45071;BME280;30836;48.906;9.140;2023-07-02T02:59:57;980.88;;;22.92;53.60
45071;BME280;30836;48.906;9.140;2023-07-02T03:00:58;980.92;;;22.95;53.52
45071;BME280;30836;48.906;9.140;2023-07-02T03:01:58;980.90;;;22.98;53.53
45071;BME280;30836;48.906;9.140;2023-07-02T03:02:58;980.94;;;22.97;53.70
45071;BME280;30836;48.906;9.140;2023-07-02T03:03:59;981.00;;;22.95;53.85
45071;BME280;30836;48.906;9.140;2023-07-02T03:05:00;981.00;;;22.86;54.52
45071;BME280;30836;48.906;9.140;2023-07-02T03:06:00;981.04;;;22.66;55.47
45071;BME280;30836;48.906;9.140;2023-07-02T03:07:01;981.04;;;22.43;56.18
45071;BME280;30836;48.906;9.140;2023-07-02T03:08:01;981.04;;;22.27;56.30
45071;BME280;30836;48.906;9.140;2023-07-02T03:09:01;981.08;;;22.11;57.00
45071;BME280;30836;48.906;9.140;2023-07-02T03:10:02;981.06;;;21.95;57.25
45071;BME280;30836;48.906;9.140;2023-07-02T03:11:03;981.08;;;21.90;57.18
45071;BME280;30836;48.906;9.140;2023-07-02T03:12:03;981.08;;;21.90;57.18
45071;BME280;30836;48.906;9.140;2023-07-02T03:13:04;981.12;;;21.89;57.28
45071;BME280;30836;48.906;9.140;2023-07-02T03:14:04;981.12;;;21.82;57.83
45071;BME280;30836;48.906;9.140;2023-07-02T03:15:05;981.14;;;21.75;57.49
45071;BME280;30836;48.906;9.140;2023-07-02T03:16:06;981.14;;;21.72;57.36
45071;BME280;30836;48.906;9.140;2023-07-02T03:17:06;981.14;;;21.66;57.18
45071;BME280;30836;48.906;9.140;2023-07-02T03:18:07;981.14;;;21.60;57.26
45071;BME280;30836;48.906;9.140;2023-07-02T03:19:07;981.18;;;21.53;57.51
45071;BME280;30836;48.906;9.140;2023-07-02T03:20:08;981.22;;;21.41;57.18
45071;BME280;30836;48.906;9.140;2023-07-02T03:21:09;981.24;;;21.34;56.97
45071;BME280;30836;48.906;9.140;2023-07-02T03:22:09;981.20;;;21.27;56.71
45071;BME280;30836;48.906;9.140;2023-07-02T03:23:09;981.20;;;21.22;56.89
45071;BME280;30836;48.906;9.140;2023-07-02T03:24:10;981.20;;;21.21;56.96
45071;BME280;30836;48.906;9.140;2023-07-02T03:25:10;981.26;;;21.25;56.40
45071;BME280;30836;48.906;9.140;2023-07-02T03:26:11;981.28;;;21.31;56.15
45071;BME280;30836;48.906;9.140;2023-07-02T03:27:11;981.28;;;21.30;55.66
45071;BME280;30836;48.906;9.140;2023-07-02T03:28:12;981.28;;;21.21;55.47
45071;BME280;30836;48.906;9.140;2023-07-02T03:29:12;981.30;;;21.13;55.62
45071;BME280;30836;48.906;9.140;2023-07-02T03:30:13;981.28;;;20.98;55.85
45071;BME280;30836;48.906;9.140;2023-07-02T03:31:13;981.33;;;20.82;56.13
45071;BME280;30836;48.906;9.140;2023-07-02T03:32:13;981.33;;;20.79;56.43
45071;BME280;30836;48.906;9.140;2023-07-02T03:33:14;981.33;;;20.80;55.94
45071;BME280;30836;48.906;9.140;2023-07-02T03:34:14;981.37;;;20.94;55.42
45071;BME280;30836;48.906;9.140;2023-07-02T03:35:15;981.39;;;21.06;55.27
45071;BME280;30836;48.906;9.140;2023-07-02T03:36:15;981.35;;;21.11;55.20
45071;BME280;30836;48.906;9.140;2023-07-02T03:37:16;981.41;;;21.12;55.28
45071;BME280;30836;48.906;9.140;2023-07-02T03:38:16;981.39;;;21.10;55.39
45071;BME280;30836;48.906;9.140;2023-07-02T03:39:16;981.39;;;21.05;55.42
45071;BME280;30836;48.906;9.140;2023-07-02T03:40:17;981.41;;;20.98;55.78
45071;BME280;30836;48.906;9.140;2023-07-02T03:41:18;981.43;;;20.94;55.61
45071;BME280;30836;48.906;9.140;2023-07-02T03:42:18;981.45;;;20.91;55.69
45071;BME280;30836;48.906;9.140;2023-07-02T03:43:18;981.43;;;20.86;55.95
45071;BME280;30836;48.906;9.140;2023-07-02T03:44:19;981.45;;;20.87;55.86
45071;BME280;30836;48.906;9.140;2023-07-02T03:45:19;981.45;;;20.92;55.60
45071;BME280;30836;48.906;9.140;2023-07-02T03:46:20;981.43;;;20.97;55.74
45071;BME280;30836;48.906;9.140;2023-07-02T03:47:20;981.45;;;21.01;55.51
45071;BME280;30836;48.906;9.140;2023-07-02T03:48:21;981.49;;;21.10;55.32
45071;BME280;30836;48.906;9.140;2023-07-02T03:49:21;981.51;;;21.17;55.17
45071;BME280;30836;48.906;9.140;2023-07-02T03:50:21;981.51;;;21.16;55.37
45071;BME280;30836;48.906;9.140;2023-07-02T03:51:22;981.55;;;21.08;55.63
45071;BME280;30836;48.906;9.140;2023-07-02T03:52:22;981.55;;;21.02;55.80
45071;BME280;30836;48.906;9.140;2023-07-02T03:53:23;981.57;;;20.98;55.68
45071;BME280;30836;48.906;9.140;2023-07-02T03:54:23;981.61;;;20.99;55.72
45071;BME280;30836;48.906;9.140;2023-07-02T03:55:24;981.69;;;20.89;56.11
45071;BME280;30836;48.906;9.140;2023-07-02T03:56:25;981.61;;;20.72;56.07
45071;BME280;30836;48.906;9.140;2023-07-02T03:57:25;981.61;;;20.68;56.04
45071;BME280;30836;48.906;9.140;2023-07-02T03:58:26;981.59;;;20.68;56.10
45071;BME280;30836;48.906;9.140;2023-07-02T03:59:26;981.61;;;20.66;56.28
45071;BME280;30836;48.906;9.140;2023-07-02T04:00:27;981.59;;;20.61;56.29
45071;BME280;30836;48.906;9.140;2023-07-02T04:01:27;981.61;;;20.58;56.60
45071;BME280;30836;48.906;9.140;2023-07-02T04:02:27;981.63;;;20.49;56.81
45071;BME280;30836;48.906;9.140;2023-07-02T04:03:28;981.65;;;20.46;56.62
45071;BME280;30836;48.906;9.140;2023-07-02T04:04:28;981.63;;;20.51;56.42
45071;BME280;30836;48.906;9.140;2023-07-02T04:05:29;981.63;;;20.58;56.21
45071;BME280;30836;48.906;9.140;2023-07-02T04:06:29;981.61;;;20.69;55.85
45071;BME280;30836;48.906;9.140;2023-07-02T04:07:30;981.63;;;20.81;55.65
45071;BME280;30836;48.906;9.140;2023-07-02T04:08:30;981.65;;;20.90;55.55
45071;BME280;30836;48.906;9.140;2023-07-02T04:09:30;981.67;;;20.96;55.30
45071;BME280;30836;48.906;9.140;2023-07-02T04:10:31;981.65;;;21.07;55.09
45071;BME280;30836;48.906;9.140;2023-07-02T04:11:31;981.67;;;21.18;55.08
45071;BME280;30836;48.906;9.140;2023-07-02T04:12:32;981.67;;;21.21;55.13
45071;BME280;30836;48.906;9.140;2023-07-02T04:13:32;981.69;;;21.26;54.93
45071;BME280;30836;48.906;9.140;2023-07-02T04:14:33;981.69;;;21.32;54.93
45071;BME280;30836;48.906;9.140;2023-07-02T04:15:33;981.67;;;21.42;54.41
45071;BME280;30836;48.906;9.140;2023-07-02T04:16:35;981.73;;;21.60;53.88
45071;BME280;30836;48.906;9.140;2023-07-02T04:17:35;981.73;;;21.79;53.59
45071;BME280;30836;48.906;9.140;2023-07-02T04:18:36;981.79;;;21.94;53.15
45071;BME280;30836;48.906;9.140;2023-07-02T04:19:36;981.75;;;22.05;52.99
45071;BME280;30836;48.906;9.140;2023-07-02T04:20:36;981.77;;;22.09;52.78
45071;BME280;30836;48.906;9.140;2023-07-02T04:21:37;981.77;;;22.04;53.21
45071;BME280;30836;48.906;9.140;2023-07-02T04:22:37;981.75;;;21.95;53.17
45071;BME280;30836;48.906;9.140;2023-07-02T04:23:38;981.75;;;21.96;52.96
45071;BME280;30836;48.906;9.140;2023-07-02T04:24:38;981.73;;;22.06;52.51
45071;BME280;30836;48.906;9.140;2023-07-02T04:25:39;981.75;;;22.15;52.41
45071;BME280;30836;48.906;9.140;2023-07-02T04:26:39;981.73;;;22.19;52.30
45071;BME280;30836;48.906;9.140;2023-07-02T04:27:39;981.71;;;22.18;52.51
45071;BME280;30836;48.906;9.140;2023-07-02T04:28:40;981.69;;;22.15;52.40
45071;BME280;30836;48.906;9.140;2023-07-02T04:29:40;981.67;;;22.20;52.31
45071;BME280;30836;48.906;9.140;2023-07-02T04:30:41;981.69;;;22.24;52.15
45071;BME280;30836;48.906;9.140;2023-07-02T04:31:41;981.69;;;22.27;52.08
45071;BME280;30836;48.906;9.140;2023-07-02T04:32:41;981.73;;;22.34;51.97
45071;BME280;30836;48.906;9.140;2023-07-02T04:33:42;981.73;;;22.43;51.52
45071;BME280;30836;48.906;9.140;2023-07-02T04:34:42;981.73;;;22.55;51.25
45071;BME280;30836;48.906;9.140;2023-07-02T04:35:43;981.79;;;22.66;51.17
45071;BME280;30836;48.906;9.140;2023-07-02T04:36:43;981.81;;;22.70;51.17
45071;BME280;30836;48.906;9.140;2023-07-02T04:37:44;981.81;;;22.70;51.13
45071;BME280;30836;48.906;9.140;2023-07-02T04:38:44;981.82;;;22.73;50.92
45071;BME280;30836;48.906;9.140;2023-07-02T04:39:45;981.84;;;22.75;50.93
45071;BME280;30836;48.906;9.140;2023-07-02T04:40:45;981.84;;;22.74;50.92
45071;BME280;30836;48.906;9.140;2023-07-02T04:41:46;981.86;;;22.72;51.27
45071;BME280;30836;48.906;9.140;2023-07-02T04:42:46;981.86;;;22.64;51.49
45071;BME280;30836;48.906;9.140;2023-07-02T04:43:46;981.84;;;22.52;52.00
45071;BME280;30836;48.906;9.140;2023-07-02T04:44:47;981.82;;;22.36;52.29
45071;BME280;30836;48.906;9.140;2023-07-02T04:45:47;981.82;;;22.23;52.38
45071;BME280;30836;48.906;9.140;2023-07-02T04:46:48;981.81;;;22.18;52.44
45071;BME280;30836;48.906;9.140;2023-07-02T04:47:48;981.79;;;22.13;52.61
45071;BME280;30836;48.906;9.140;2023-07-02T04:48:48;981.82;;;22.05;52.72
45071;BME280;30836;48.906;9.140;2023-07-02T04:49:49;981.82;;;21.96;52.84
45071;BME280;30836;48.906;9.140;2023-07-02T04:50:49;981.84;;;21.87;53.13
45071;BME280;30836;48.906;9.140;2023-07-02T04:51:50;981.84;;;21.72;53.41
45071;BME280;30836;48.906;9.140;2023-07-02T04:52:51;981.84;;;21.64;53.34
45071;BME280;30836;48.906;9.140;2023-07-02T04:53:51;981.84;;;21.62;53.45
45071;BME280;30836;48.906;9.140;2023-07-02T04:54:52;981.88;;;21.59;53.53
45071;BME280;30836;48.906;9.140;2023-07-02T04:55:52;981.86;;;21.56;53.56
45071;BME280;30836;48.906;9.140;2023-07-02T04:56:53;981.90;;;21.55;53.53
45071;BME280;30836;48.906;9.140;2023-07-02T04:57:53;981.84;;;21.59;53.32
45071;BME280;30836;48.906;9.140;2023-07-02T04:58:54;981.88;;;21.62;53.32
45071;BME280;30836;48.906;9.140;2023-07-02T04:59:54;981.86;;;21.65;53.22
45071;BME280;30836;48.906;9.140;2023-07-02T05:00:54;981.88;;;21.69;53.20
45071;BME280;30836;48.906;9.140;2023-07-02T05:01:55;981.90;;;21.73;53.16
45071;BME280;30836;48.906;9.140;2023-07-02T05:02:55;981.92;;;21.77;52.87
45071;BME280;30836;48.906;9.140;2023-07-02T05:03:56;981.92;;;21.75;52.98
45071;BME280;30836;48.906;9.140;2023-07-02T05:04:56;981.92;;;21.69;53.16
45071;BME280;30836;48.906;9.140;2023-07-02T05:05:57;981.94;;;21.65;53.08
45071;BME280;30836;48.906;9.140;2023-07-02T05:06:57;981.92;;;21.66;53.04
45071;BME280;30836;48.906;9.140;2023-07-02T05:07:59;981.94;;;21.71;52.91
45071;BME280;30836;48.906;9.140;2023-07-02T05:09:00;981.96;;;21.80;52.56
45071;BME280;30836;48.906;9.140;2023-07-02T05:10:00;981.96;;;21.84;52.60
45071;BME280;30836;48.906;9.140;2023-07-02T05:11:00;982.02;;;21.79;52.94
45071;BME280;30836;48.906;9.140;2023-07-02T05:12:01;982.02;;;21.77;52.77
45071;BME280;30836;48.906;9.140;2023-07-02T05:12:11;982.12;;;21.81;52.76
45071;BME280;30836;48.906;9.140;2023-07-02T05:13:11;982.12;;;21.86;52.44
45071;BME280;30836;48.906;9.140;2023-07-02T05:14:12;982.16;;;21.95;52.32
45071;BME280;30836;48.906;9.140;2023-07-02T05:15:12;982.16;;;22.00;52.29
45071;BME280;30836;48.906;9.140;2023-07-02T05:16:12;982.20;;;21.99;52.03
45071;BME280;30836;48.906;9.140;2023-07-02T05:17:14;982.18;;;21.94;52.19
45071;BME280;30836;48.906;9.140;2023-07-02T05:18:14;982.20;;;21.89;52.19
45071;BME280;30836;48.906;9.140;2023-07-02T05:19:15;982.18;;;21.85;52.24
45071;BME280;30836;48.906;9.140;2023-07-02T05:20:15;982.22;;;21.81;52.37
45071;BME280;30836;48.906;9.140;2023-07-02T05:21:19;982.22;;;21.80;52.36
45071;BME280;30836;48.906;9.140;2023-07-02T05:22:20;982.20;;;21.78;52.46
45071;BME280;30836;48.906;9.140;2023-07-02T05:23:20;982.20;;;21.70;52.51
45071;BME280;30836;48.906;9.140;2023-07-02T05:24:21;982.24;;;21.58;52.46
45071;BME280;30836;48.906;9.140;2023-07-02T05:25:21;982.24;;;21.47;52.70
45071;BME280;30836;48.906;9.140;2023-07-02T05:26:21;982.24;;;21.38;52.59
45071;BME280;30836;48.906;9.140;2023-07-02T05:27:22;982.28;;;21.32;52.88
45071;BME280;30836;48.906;9.140;2023-07-02T05:28:23;982.24;;;21.33;52.68
45071;BME280;30836;48.906;9.140;2023-07-02T05:29:24;982.28;;;21.40;52.50
45071;BME280;30836;48.906;9.140;2023-07-02T05:30:25;982.28;;;21.45;52.07
45071;BME280;30836;48.906;9.140;2023-07-02T05:31:25;982.32;;;21.48;52.09
45071;BME280;30836;48.906;9.140;2023-07-02T05:32:25;982.32;;;21.45;52.21